Time;durP1;ratioP1;P1;durP2;ratioP2;P2;SDS_P1;SDS_P2;PMS_P1;PMS_P2;Temp;Humidity;BMP_temperature;BMP_pressure;BME280_temperature;BME280_humidity;BME280_pressure;Samples;Min_cycle;Max_cycle;Signal;HPM_P1;HPM_P2
2022/12/21 00:00:49;;;;;;;6.87;3.70;;;;;;;6.96;100.00;96691.38;4993010;28;20220;-58
2022/12/21 00:03:17;;;;;;;3.47;3.17;;;;;;;6.96;100.00;96685.28;4994276;28;20217;-58
2022/12/21 00:05:45;;;;;;;3.77;3.43;;;;;;;6.92;100.00;96679.44;4993030;28;20228;-59
2022/12/21 00:08:11;;;;;;;3.60;3.30;;;;;;;6.93;100.00;96675.84;4993262;28;20209;-61
2022/12/21 00:10:38;;;;;;;4.17;3.20;;;;;;;6.93;100.00;96690.78;4993217;28;20202;-58
2022/12/21 00:13:04;;;;;;;3.90;3.10;;;;;;;6.87;100.00;96689.47;4997427;28;20209;-58
2022/12/21 00:15:31;;;;;;;3.57;2.67;;;;;;;6.86;100.00;96681.72;5011111;28;20201;-60
2022/12/21 00:17:57;;;;;;;2.87;2.67;;;;;;;6.81;100.00;96683.84;5009027;28;20213;-58
2022/12/21 00:20:25;;;;;;;2.80;2.60;;;;;;;6.85;100.00;96683.50;5010113;28;20225;-59
2022/12/21 00:22:51;;;;;;;3.83;2.80;;;;;;;6.82;100.00;96680.28;5011857;28;20201;-59
2022/12/21 00:25:19;;;;;;;3.50;2.63;;;;;;;6.84;100.00;96679.19;5011933;28;20217;-59
2022/12/21 00:27:45;;;;;;;2.83;2.50;;;;;;;6.83;100.00;96663.56;5013489;28;20201;-59
2022/12/21 00:30:12;;;;;;;5.63;2.20;;;;;;;6.83;100.00;96674.91;5011811;28;20201;-58
2022/12/21 00:32:39;;;;;;;3.17;2.37;;;;;;;6.84;100.00;96675.72;4995672;28;20209;-59
2022/12/21 00:35:06;;;;;;;2.60;2.40;;;;;;;6.85;100.00;96678.22;4992684;28;20209;-59
2022/12/21 00:37:34;;;;;;;2.67;2.00;;;;;;;6.85;100.00;96675.59;4992808;28;20236;-61
2022/12/21 00:40:00;;;;;;;3.60;2.20;;;;;;;6.79;100.00;96672.63;4992301;28;20217;-59
2022/12/21 00:42:26;;;;;;;3.03;2.27;;;;;;;6.85;100.00;96659.84;4992527;28;20309;-58
2022/12/21 00:44:53;;;;;;;2.70;1.80;;;;;;;6.86;100.00;96656.25;4991917;28;20241;-59
2022/12/21 00:47:19;;;;;;;1.67;1.57;;;;;;;6.84;100.00;96649.44;4992721;28;20267;-58
2022/12/21 00:49:46;;;;;;;1.87;1.77;;;;;;;6.84;100.00;96652.91;4991754;28;20198;-58
2022/12/21 00:52:12;;;;;;;4.10;2.27;;;;;;;6.85;100.00;96649.31;4992326;28;20516;-58
2022/12/21 00:54:40;;;;;;;2.27;2.07;;;;;;;6.86;100.00;96652.78;4991556;28;20537;-57
2022/12/21 00:57:07;;;;;;;2.90;2.13;;;;;;;6.87;100.00;96657.91;4992370;28;20213;-58
2022/12/21 00:59:33;;;;;;;2.57;1.90;;;;;;;6.89;100.00;96653.38;4991914;28;20237;-59
2022/12/21 01:02:00;;;;;;;1.93;1.83;;;;;;;6.88;100.00;96654.34;4991971;28;20209;-58
2022/12/21 01:04:26;;;;;;;2.67;1.93;;;;;;;6.92;100.00;96663.66;4991983;28;20564;-58
2022/12/21 01:06:53;;;;;;;1.87;1.60;;;;;;;6.97;100.00;96656.25;4992170;28;20205;-58
2022/12/21 01:09:19;;;;;;;1.93;1.80;;;;;;;7.03;100.00;96648.81;4992648;28;20220;-59
2022/12/21 01:11:47;;;;;;;1.60;1.50;;;;;;;7.14;100.00;96656.72;5000906;28;20201;-58
2022/12/21 01:14:13;;;;;;;1.80;1.70;;;;;;;7.20;100.00;96656.22;5007077;28;20217;-58
2022/12/21 01:16:40;;;;;;;2.27;1.50;;;;;;;7.24;100.00;96660.28;5007634;28;20197;-58
2022/12/21 01:19:07;;;;;;;1.80;1.70;;;;;;;7.27;100.00;96652.97;4992963;28;20348;-58
2022/12/21 01:21:34;;;;;;;2.90;1.60;;;;;;;7.35;100.00;96649.75;4992293;28;20213;-58
2022/12/21 01:24:01;;;;;;;1.93;1.63;;;;;;;7.37;100.00;96650.44;4992008;28;20260;-57
2022/12/21 01:26:28;;;;;;;1.70;1.60;;;;;;;7.39;100.00;96659.06;4991909;28;20228;-58
2022/12/21 01:28:56;;;;;;;2.77;1.60;;;;;;;7.42;100.00;96649.13;4991775;28;20232;-58
2022/12/21 01:31:23;;;;;;;2.33;1.90;;;;;;;7.43;100.00;96650.81;4991682;28;20292;-57
2022/12/21 01:33:49;;;;;;;2.27;2.07;;;;;;;7.44;100.00;96644.56;4992036;28;21265;-58
2022/12/21 01:36:17;;;;;;;2.27;2.03;;;;;;;7.49;100.00;96647.66;4991666;28;20220;-59
2022/12/21 01:38:45;;;;;;;6.53;2.40;;;;;;;7.54;100.00;96636.78;4991436;28;20220;-59
2022/12/21 01:41:14;;;;;;;2.50;2.00;;;;;;;7.68;100.00;96640.91;4991326;28;20209;-59
2022/12/21 01:43:43;;;;;;;2.27;1.90;;;;;;;7.95;100.00;96655.28;4991377;28;20237;-59
2022/12/21 01:46:13;;;;;;;1.87;1.77;;;;;;;8.13;100.00;96647.66;4991372;28;20205;-58
2022/12/21 01:48:42;;;;;;;2.20;2.10;;;;;;;8.30;100.00;96654.16;4992167;28;20201;-58
2022/12/21 01:51:10;;;;;;;2.10;2.00;;;;;;;8.42;100.00;96648.72;4991065;28;20209;-58
2022/12/21 01:53:38;;;;;;;2.40;2.20;;;;;;;8.57;100.00;96649.22;4990857;28;20217;-58
2022/12/21 01:56:07;;;;;;;2.47;2.00;;;;;;;8.68;100.00;96643.84;4991108;28;20296;-58
2022/12/21 01:58:35;;;;;;;4.40;2.20;;;;;;;8.87;98.96;96643.94;4991598;28;20228;-59
2022/12/21 02:01:02;;;;;;;2.60;2.40;;;;;;;9.04;98.07;96644.25;4991288;28;20247;-58
2022/12/21 02:03:33;;;;;;;2.37;2.10;;;;;;;9.13;97.43;96646.13;4994779;28;20208;-58
2022/12/21 02:06:03;;;;;;;2.10;1.97;;;;;;;9.19;97.49;96649.06;4994080;28;20625;-58
2022/12/21 02:08:29;;;;;;;3.00;2.80;;;;;;;9.20;95.64;96644.63;4995653;28;20220;-58
2022/12/21 02:10:58;;;;;;;3.43;2.67;;;;;;;9.22;95.78;96645.28;4995647;28;20205;-59
2022/12/21 02:13:24;;;;;;;3.47;2.67;;;;;;;9.21;96.56;96646.28;4995875;28;20220;-59
2022/12/21 02:16:03;;;;;;;2.70;2.47;;;;;;;9.20;98.78;96639.34;4995477;28;20205;-58
2022/12/21 02:18:46;;;;;;;2.93;2.63;;;;;;;9.11;100.00;96646.25;4994963;28;20201;-59
2022/12/21 02:21:22;;;;;;;3.20;2.50;;;;;;;9.03;100.00;96643.47;4995046;28;20291;-59
2022/12/21 02:24:19;;;;;;;3.27;2.97;;;;;;;8.92;100.00;96646.19;4994671;28;20244;-58
2022/12/21 02:26:59;;;;;;;4.47;2.80;;;;;;;8.91;100.00;96650.63;4994455;28;20205;-59
2022/12/21 02:29:58;;;;;;;3.30;3.00;;;;;;;8.81;100.00;96649.75;4995044;28;20298;-59
2022/12/21 02:32:31;;;;;;;3.00;2.70;;;;;;;8.75;100.00;96644.97;4995063;28;20205;-59
2022/12/21 02:35:03;;;;;;;3.17;2.70;;;;;;;8.68;100.00;96651.75;4994425;28;20197;-58
2022/12/21 02:37:34;;;;;;;4.80;2.40;;;;;;;8.56;100.00;96657.25;4994686;28;20201;-59
2022/12/21 02:40:10;;;;;;;2.43;2.23;;;;;;;8.49;100.00;96662.19;4993481;28;20209;-59
2022/12/21 02:45:30;;;;;;;4.50;2.67;;;;;;;8.41;100.00;96651.47;4994977;28;20366;-60
2022/12/21 02:48:01;;;;;;;2.23;2.03;;;;;;;8.33;100.00;96653.91;4996023;28;20201;-59
2022/12/21 02:50:32;;;;;;;4.83;2.40;;;;;;;8.35;100.00;96665.16;4996042;28;20201;-59
2022/12/21 02:53:02;;;;;;;3.60;1.97;;;;;;;8.29;100.00;96663.06;4996545;28;20224;-59
2022/12/21 02:55:29;;;;;;;2.07;1.97;;;;;;;8.23;100.00;96664.34;4996215;28;20201;-58
2022/12/21 02:58:14;;;;;;;2.70;2.50;;;;;;;8.25;100.00;96661.59;4996440;28;20202;-58
2022/12/21 03:00:50;;;;;;;2.83;2.13;;;;;;;8.18;100.00;96666.56;4996069;28;20316;-58
2022/12/21 03:06:44;;;;;;;3.07;2.20;;;;;;;8.19;100.00;96667.34;4972819;28;20356;-58
2022/12/21 03:09:17;;;;;;;2.47;2.27;;;;;;;8.16;100.00;96664.97;4980076;28;20216;-59
2022/12/21 03:11:49;;;;;;;3.93;2.23;;;;;;;8.08;100.00;96662.97;4993529;28;20205;-60
2022/12/21 03:14:24;;;;;;;2.10;2.00;;;;;;;8.06;100.00;96664.09;4993450;28;20213;-59
2022/12/21 03:16:52;;;;;;;2.30;2.10;;;;;;;8.07;100.00;96668.41;4993771;28;20205;-59
2022/12/21 03:19:25;;;;;;;2.63;2.10;;;;;;;8.08;100.00;96667.44;4993960;28;20227;-58
2022/12/21 03:21:54;;;;;;;2.30;2.10;;;;;;;8.12;100.00;96671.47;4993735;28;20205;-58
2022/12/21 03:24:24;;;;;;;3.63;2.57;;;;;;;8.07;100.00;96668.41;4993354;28;20217;-59
2022/12/21 03:26:56;;;;;;;2.47;2.27;;;;;;;8.08;100.00;96660.34;4993936;28;20503;-58
2022/12/21 03:29:26;;;;;;;2.63;2.20;;;;;;;8.07;100.00;96668.41;4994076;28;20197;-58
2022/12/21 03:31:56;;;;;;;2.27;2.03;;;;;;;8.07;100.00;96660.50;4993728;28;20208;-59
2022/12/21 03:34:26;;;;;;;4.27;2.40;;;;;;;8.01;100.00;96654.75;4993957;28;20208;-59
2022/12/21 03:36:56;;;;;;;3.77;2.40;;;;;;;8.00;100.00;96663.66;4993823;28;20201;-58
2022/12/21 03:39:24;;;;;;;2.90;2.70;;;;;;;8.00;100.00;96663.66;5001886;28;20232;-59
2022/12/21 03:41:52;;;;;;;3.13;2.50;;;;;;;8.04;100.00;96655.47;5013658;28;20209;-59
2022/12/21 03:44:21;;;;;;;2.57;2.37;;;;;;;7.98;100.00;96649.75;5014753;28;20247;-58
2022/12/21 03:46:51;;;;;;;3.67;2.40;;;;;;;7.96;100.00;96650.84;5011052;28;20227;-58
2022/12/21 03:49:21;;;;;;;2.27;2.10;;;;;;;7.93;100.00;96645.84;5003541;28;20220;-59
2022/12/21 03:51:50;;;;;;;4.13;2.30;;;;;;;7.94;100.00;96652.75;5002997;28;20205;-58
2022/12/21 03:54:22;;;;;;;5.07;2.63;;;;;;;7.95;100.00;96657.06;5002542;28;20213;-58
2022/12/21 03:56:49;;;;;;;2.40;2.13;;;;;;;7.96;100.00;96658.75;5003115;28;20200;-58
2022/12/21 03:59:17;;;;;;;2.47;2.27;;;;;;;7.96;100.00;96656.13;5002807;28;20534;-57
2022/12/21 04:01:49;;;;;;;5.67;2.33;;;;;;;7.98;100.00;96659.44;5003083;28;20224;-57
2022/12/21 04:04:22;;;;;;;2.60;2.40;;;;;;;7.99;100.00;96656.69;5002170;28;20197;-58
2022/12/21 04:06:50;;;;;;;2.80;2.37;;;;;;;8.05;100.00;96665.03;5002302;28;20255;-58
2022/12/21 04:09:16;;;;;;;3.47;2.37;;;;;;;8.05;100.00;96667.66;5002075;28;20201;-58
2022/12/21 04:14:27;;;;;;;3.23;2.17;;;;;;;8.11;100.00;96659.28;5002411;28;20216;-58
2022/12/21 04:16:53;;;;;;;2.10;1.93;;;;;;;8.14;100.00;96661.66;5002083;28;20663;-59
2022/12/21 04:22:06;;;;;;;2.87;2.40;;;;;;;8.15;100.00;96660.69;5001974;28;20227;-59
2022/12/21 04:30:00;;;;;;;3.73;2.20;;;;;;;8.12;100.00;96674.09;5002199;28;20227;-58
2022/12/21 04:32:26;;;;;;;2.30;2.10;;;;;;;8.13;100.00;96679.25;5002379;28;20216;-60
2022/12/21 04:34:53;;;;;;;2.87;2.10;;;;;;;8.15;100.00;96673.88;5002534;28;20217;-59
2022/12/21 04:37:32;;;;;;;4.13;2.10;;;;;;;8.16;100.00;96672.88;5002415;28;20211;-58
2022/12/21 04:39:59;;;;;;;4.97;2.33;;;;;;;8.20;100.00;96671.66;5001710;28;20231;-59
2022/12/21 04:42:26;;;;;;;2.33;2.10;;;;;;;8.20;100.00;96677.78;5002905;28;20208;-58
2022/12/21 04:44:52;;;;;;;3.80;2.20;;;;;;;8.20;100.00;96682.22;5002004;28;20240;-59
2022/12/21 04:47:19;;;;;;;2.73;1.90;;;;;;;8.21;100.00;96681.25;5002258;28;20212;-58
2022/12/21 04:49:46;;;;;;;3.53;2.50;;;;;;;8.21;100.00;96679.47;5001815;28;20209;-58
2022/12/21 04:52:12;;;;;;;4.77;2.27;;;;;;;8.26;100.00;96679.91;5002510;28;20235;-58
2022/12/21 04:54:40;;;;;;;2.77;1.87;;;;;;;8.30;100.00;96680.50;5001683;28;20219;-58
2022/12/21 04:57:06;;;;;;;3.77;1.83;;;;;;;8.35;100.00;96678.34;5001668;28;20288;-58
2022/12/21 04:59:33;;;;;;;2.70;2.30;;;;;;;8.35;100.00;96680.97;5001339;28;20210;-58
2022/12/21 05:01:59;;;;;;;3.77;2.07;;;;;;;8.38;100.00;96678.06;5001953;28;20209;-59
2022/12/21 05:04:26;;;;;;;4.40;2.10;;;;;;;8.39;100.00;96685.88;5001033;28;20506;-58
2022/12/21 05:06:54;;;;;;;2.40;2.20;;;;;;;8.43;100.00;96689.88;5002307;28;20209;-58
2022/12/21 05:09:21;;;;;;;3.07;2.07;;;;;;;8.46;100.00;96692.28;5001953;28;20207;-58
2022/12/21 05:11:48;;;;;;;4.87;2.20;;;;;;;8.50;100.00;96691.03;5003696;28;20208;-58
2022/12/21 05:14:15;;;;;;;2.00;1.80;;;;;;;8.51;100.00;96683.97;5004282;28;20235;-58
2022/12/21 05:16:42;;;;;;;2.10;1.93;;;;;;;8.51;100.00;96691.88;5004107;28;20201;-58
2022/12/21 05:19:08;;;;;;;2.30;2.10;;;;;;;8.50;100.00;96692.88;5002063;28;20644;-60
2022/12/21 05:21:35;;;;;;;5.30;2.20;;;;;;;8.47;100.00;96693.94;5001416;28;20228;-61
2022/12/21 05:24:02;;;;;;;3.30;2.27;;;;;;;8.45;100.00;96701.16;5001056;28;20209;-59
2022/12/21 05:26:28;;;;;;;2.63;2.17;;;;;;;8.43;100.00;96702.25;5000894;28;20206;-59
2022/12/21 05:28:56;;;;;;;2.63;2.10;;;;;;;8.41;100.00;96709.44;5001105;28;20871;-59
2022/12/21 05:31:22;;;;;;;3.67;2.07;;;;;;;8.38;100.00;96699.16;5001113;28;20201;-59
2022/12/21 05:33:49;;;;;;;3.60;1.93;;;;;;;8.36;100.00;96695.81;5001223;28;20215;-59
2022/12/21 05:36:17;;;;;;;5.37;2.37;;;;;;;8.37;100.00;96705.38;5002512;28;20648;-60
2022/12/21 05:38:44;;;;;;;2.47;1.93;;;;;;;8.43;100.00;96697.00;5004975;28;20212;-59
2022/12/21 05:41:12;;;;;;;1.87;1.60;;;;;;;8.46;100.00;96702.00;5004342;28;20675;-59
2022/12/21 05:43:38;;;;;;;2.27;1.90;;;;;;;8.48;100.00;96694.78;5001604;28;20247;-59
2022/12/21 05:46:08;;;;;;;2.20;2.00;;;;;;;8.47;100.00;96698.38;4994970;28;20209;-59
2022/12/21 05:48:36;;;;;;;2.70;2.10;;;;;;;8.50;100.00;96691.03;4995949;28;20603;-59
2022/12/21 05:51:06;;;;;;;2.30;2.10;;;;;;;8.49;100.00;96688.56;4995391;28;20205;-58
2022/12/21 05:53:33;;;;;;;3.70;2.03;;;;;;;8.51;100.00;96694.53;4995472;28;20224;-59
2022/12/21 05:55:59;;;;;;;2.60;2.13;;;;;;;8.52;100.00;96690.94;4995107;28;20223;-59
2022/12/21 05:58:26;;;;;;;2.03;1.77;;;;;;;8.48;100.00;96694.78;4995654;28;20212;-58
2022/12/21 06:00:52;;;;;;;5.07;2.20;;;;;;;8.44;100.00;96696.84;4995062;28;20221;-59
2022/12/21 06:03:21;;;;;;;2.43;2.20;;;;;;;8.44;100.00;96688.09;4995336;28;20217;-60
2022/12/21 06:05:48;;;;;;;2.70;2.50;;;;;;;8.43;100.00;96681.19;4995693;28;20205;-59
2022/12/21 06:08:14;;;;;;;4.17;2.20;;;;;;;8.40;100.00;96689.31;4996783;28;20540;-58
2022/12/21 06:10:41;;;;;;;3.30;2.30;;;;;;;8.39;100.00;96690.28;5009559;28;20212;-61
2022/12/21 06:13:07;;;;;;;2.83;2.00;;;;;;;8.38;100.00;96684.19;5010413;28;20217;-59
2022/12/21 06:15:34;;;;;;;3.63;2.37;;;;;;;8.39;100.00;96663.94;5015782;28;20193;-59
2022/12/21 06:18:00;;;;;;;2.97;2.27;;;;;;;8.37;100.00;96665.84;5001183;28;20264;-60
2022/12/21 06:20:28;;;;;;;4.70;1.87;;;;;;;8.37;100.00;96671.13;4999125;28;20221;-60
2022/12/21 06:22:55;;;;;;;3.63;1.70;;;;;;;8.39;100.00;96677.13;4998567;28;20209;-58
2022/12/21 06:25:21;;;;;;;2.27;1.90;;;;;;;8.44;100.00;96667.00;4997708;28;20201;-59
2022/12/21 06:27:48;;;;;;;2.30;2.10;;;;;;;8.46;100.00;96673.84;4998197;28;20216;-59
2022/12/21 06:30:14;;;;;;;2.50;2.23;;;;;;;8.44;100.00;96677.56;4998651;28;20210;-59
2022/12/21 06:32:41;;;;;;;5.90;2.23;;;;;;;8.42;100.00;96672.44;4996075;28;20211;-60
2022/12/21 06:35:08;;;;;;;1.90;1.80;;;;;;;8.40;100.00;96684.88;4994758;28;20205;-59
2022/12/21 06:37:36;;;;;;;2.60;2.07;;;;;;;8.35;100.00;96684.44;4994796;28;20209;-60
2022/12/21 06:40:03;;;;;;;3.67;2.00;;;;;;;8.36;100.00;96693.19;4994140;28;20205;-59
2022/12/21 06:42:29;;;;;;;2.43;2.10;;;;;;;8.34;100.00;96682.75;4994445;28;20205;-61
2022/12/21 06:44:56;;;;;;;3.10;2.10;;;;;;;8.33;100.00;96686.34;4994545;28;20245;-59
2022/12/21 06:47:22;;;;;;;2.77;2.10;;;;;;;8.33;100.00;96691.63;4994303;28;20232;-59
2022/12/21 06:49:49;;;;;;;3.67;2.10;;;;;;;8.31;100.00;96684.81;4994593;28;20205;-60
2022/12/21 06:52:15;;;;;;;5.50;2.37;;;;;;;8.30;100.00;96675.25;4993961;28;20626;-59
2022/12/21 06:54:43;;;;;;;2.23;2.03;;;;;;;8.31;100.00;96690.09;4994125;28;20201;-58
2022/12/21 06:57:09;;;;;;;2.33;2.07;;;;;;;8.29;100.00;96686.75;4994485;28;20205;-60
2022/12/21 06:59:36;;;;;;;1.63;1.53;;;;;;;8.32;100.00;96697.03;4994314;28;20209;-60
2022/12/21 07:02:03;;;;;;;2.00;1.90;;;;;;;8.31;100.00;96698.00;4994443;28;20236;-59
2022/12/21 07:04:30;;;;;;;2.60;2.00;;;;;;;8.30;100.00;96693.69;4994299;28;20229;-60
2022/12/21 07:06:56;;;;;;;2.03;1.93;;;;;;;8.32;100.00;96691.78;4994548;28;20205;-60
2022/12/21 07:09:24;;;;;;;1.90;1.80;;;;;;;8.31;100.00;96690.94;4993276;28;20217;-60
2022/12/21 07:11:52;;;;;;;2.10;1.90;;;;;;;8.33;100.00;96696.91;4994354;28;20225;-60
2022/12/21 07:14:19;;;;;;;2.67;1.80;;;;;;;8.36;100.00;96698.47;4994031;28;20590;-57
2022/12/21 07:16:45;;;;;;;3.17;2.20;;;;;;;8.36;100.00;96691.38;4994537;28;20552;-60
2022/12/21 07:19:12;;;;;;;2.63;1.93;;;;;;;8.34;100.00;96697.75;4993962;28;20575;-60
2022/12/21 07:21:38;;;;;;;4.17;2.10;;;;;;;8.23;100.00;96685.44;4994568;28;20225;-61
2022/12/21 07:24:06;;;;;;;3.57;2.40;;;;;;;8.24;100.00;96688.91;4994284;28;20233;-61
2022/12/21 07:26:32;;;;;;;2.40;1.93;;;;;;;8.23;100.00;96692.50;4994238;28;20854;-62
2022/12/21 07:29:00;;;;;;;3.80;2.53;;;;;;;8.22;100.00;96691.66;4995707;28;20214;-61
2022/12/21 07:31:27;;;;;;;4.60;2.40;;;;;;;8.20;100.00;96700.66;4994365;28;20229;-61
2022/12/21 07:33:54;;;;;;;3.47;2.63;;;;;;;8.21;100.00;96678.63;4994003;28;20248;-61
2022/12/21 07:36:21;;;;;;;3.43;2.80;;;;;;;8.13;100.00;96688.94;4993298;28;20220;-61
2022/12/21 07:38:48;;;;;;;4.70;2.83;;;;;;;8.11;100.00;96689.09;4994547;28;20221;-61
2022/12/21 07:41:16;;;;;;;4.43;3.03;;;;;;;8.11;100.00;96688.25;4993301;28;20692;-61
2022/12/21 07:43:43;;;;;;;6.33;2.70;;;;;;;8.12;100.00;96692.53;4994181;28;20261;-61
2022/12/21 07:46:11;;;;;;;4.50;2.83;;;;;;;8.13;100.00;96694.22;4994052;28;20233;-61
2022/12/21 07:48:37;;;;;;;4.27;2.53;;;;;;;8.09;100.00;96682.25;4993889;28;20281;-60
2022/12/21 07:51:05;;;;;;;6.00;2.50;;;;;;;8.08;100.00;96683.25;4993418;28;20212;-60
2022/12/21 07:53:33;;;;;;;5.20;2.93;;;;;;;8.06;100.00;96687.78;4993581;28;20632;-60
2022/12/21 07:56:00;;;;;;;5.30;2.90;;;;;;;8.03;100.00;96691.50;4992954;28;20209;-60
2022/12/21 07:58:27;;;;;;;4.43;2.97;;;;;;;8.04;100.00;96687.09;4994079;28;20244;-60
2022/12/21 08:00:53;;;;;;;5.47;2.93;;;;;;;8.02;100.00;96693.31;4993472;28;20240;-60
2022/12/21 08:03:21;;;;;;;4.37;3.20;;;;;;;8.08;100.00;96693.78;4993394;28;20685;-61
2022/12/21 08:05:48;;;;;;;3.80;2.97;;;;;;;8.01;100.00;96694.25;4993707;28;20212;-61
2022/12/21 08:08:14;;;;;;;5.70;3.43;;;;;;;8.00;100.00;96694.41;4994632;28;20544;-61
2022/12/21 08:10:45;;;;;;;4.87;3.10;;;;;;;8.01;100.00;96686.34;4993549;28;20212;-61
2022/12/21 08:13:12;;;;;;;3.73;3.20;;;;;;;8.04;100.00;96695.00;4994648;28;20208;-61
2022/12/21 08:15:39;;;;;;;3.60;2.93;;;;;;;8.02;100.00;96698.56;4996093;28;20208;-60
2022/12/21 08:18:06;;;;;;;3.30;3.00;;;;;;;8.02;100.00;96701.22;4997303;28;20236;-62
2022/12/21 08:20:35;;;;;;;3.30;2.90;;;;;;;8.00;100.00;96700.50;4996546;28;20205;-61
2022/12/21 08:23:01;;;;;;;5.10;3.77;;;;;;;7.97;100.00;96700.72;4999122;28;20205;-61
2022/12/21 08:25:28;;;;;;;3.77;3.47;;;;;;;8.04;100.00;96700.25;4996868;28;20246;-61
2022/12/21 08:27:55;;;;;;;5.23;3.23;;;;;;;8.00;100.00;96695.25;4999619;28;20212;-60
2022/12/21 08:30:22;;;;;;;3.53;3.20;;;;;;;8.00;100.00;96704.94;4993671;28;20213;-60
2022/12/21 08:32:48;;;;;;;4.43;3.30;;;;;;;7.99;100.00;96712.00;4992974;28;20197;-60
2022/12/21 08:35:15;;;;;;;4.30;3.00;;;;;;;8.00;100.00;96711.03;4993132;28;20209;-61
2022/12/21 08:37:43;;;;;;;5.07;4.10;;;;;;;8.04;100.00;96714.25;4993367;28;20255;-60
2022/12/21 08:40:10;;;;;;;7.03;4.27;;;;;;;8.00;100.00;96716.31;5000778;28;20213;-60
2022/12/21 08:42:38;;;;;;;4.40;4.00;;;;;;;8.00;100.00;96710.22;5009607;28;20217;-62
2022/12/21 08:45:06;;;;;;;5.20;4.33;;;;;;;8.00;100.00;96708.41;5022471;28;20236;-61
2022/12/21 08:47:33;;;;;;;8.50;5.00;;;;;;;8.02;100.00;96705.63;5010320;28;20267;-61
2022/12/21 08:50:00;;;;;;;8.13;4.87;;;;;;;8.00;100.00;96707.56;5002339;28;20209;-61
2022/12/21 08:52:26;;;;;;;5.57;4.40;;;;;;;8.00;100.00;96708.41;5002503;28;20212;-60
2022/12/21 08:54:54;;;;;;;10.67;4.20;;;;;;;7.96;100.00;96712.25;5002766;28;20204;-61
2022/12/21 08:57:21;;;;;;;7.73;4.50;;;;;;;7.95;100.00;96707.94;5002186;28;20209;-60
2022/12/21 08:59:47;;;;;;;8.43;4.50;;;;;;;7.98;100.00;96720.84;5002099;28;20208;-60
2022/12/21 09:02:14;;;;;;;5.80;4.33;;;;;;;7.96;100.00;96717.53;5002280;28;20217;-60
2022/12/21 09:04:40;;;;;;;5.73;4.30;;;;;;;8.00;100.00;96723.38;5002143;28;20212;-61
2022/12/21 09:07:07;;;;;;;9.37;5.20;;;;;;;7.99;100.00;96719.06;5002328;28;20209;-61
2022/12/21 09:09:33;;;;;;;6.97;4.40;;;;;;;8.00;100.00;96718.94;5002000;28;20217;-61
2022/12/21 09:12:01;;;;;;;6.43;4.60;;;;;;;8.05;100.00;96720.34;5001754;28;20261;-61
2022/12/21 09:14:28;;;;;;;8.63;4.43;;;;;;;8.02;100.00;96719.66;5002419;28;20209;-61
2022/12/21 09:16:55;;;;;;;7.80;4.70;;;;;;;7.97;100.00;96716.53;5002183;28;20218;-60
2022/12/21 09:19:21;;;;;;;5.27;4.63;;;;;;;8.01;100.00;96717.97;5002118;28;20205;-61
2022/12/21 09:21:48;;;;;;;8.00;4.70;;;;;;;8.02;100.00;96719.66;5002226;28;20231;-60
2022/12/21 09:24:15;;;;;;;5.80;4.77;;;;;;;8.00;100.00;96726.00;5001843;28;20208;-59
2022/12/21 09:26:42;;;;;;;5.43;4.13;;;;;;;8.04;100.00;96739.75;5002298;28;20216;-59
2022/12/21 09:29:11;;;;;;;5.50;4.17;;;;;;;8.05;100.00;96744.03;5001763;28;20205;-60
2022/12/21 09:31:38;;;;;;;7.63;5.10;;;;;;;8.04;100.00;96737.13;5001976;28;20209;-59
2022/12/21 09:34:04;;;;;;;4.67;4.23;;;;;;;8.03;100.00;96731.00;5002226;28;20232;-60
2022/12/21 09:36:32;;;;;;;5.10;4.60;;;;;;;8.01;100.00;96733.75;5001782;28;20204;-59
2022/12/21 09:38:58;;;;;;;5.97;4.43;;;;;;;8.05;100.00;96736.13;5001327;28;20204;-60
2022/12/21 09:41:36;;;;;;;6.17;4.30;;;;;;;8.04;100.00;96737.13;5001259;28;20229;-60
2022/12/21 09:44:14;;;;;;;5.13;4.13;;;;;;;8.04;100.00;96739.75;4996287;28;20575;-60
2022/12/21 09:46:42;;;;;;;6.50;4.33;;;;;;;8.04;100.00;96743.22;4991769;28;20243;-60
2022/12/21 09:49:15;;;;;;;5.97;4.50;;;;;;;8.05;100.00;96736.97;4991117;28;20201;-60
2022/12/21 09:51:48;;;;;;;6.97;4.50;;;;;;;8.06;100.00;96737.81;4991516;28;20213;-60
2022/12/21 09:54:17;;;;;;;8.07;4.70;;;;;;;8.07;100.00;96742.13;4990901;28;20216;-60
2022/12/21 09:56:47;;;;;;;6.53;4.63;;;;;;;8.07;100.00;96736.88;4991163;28;20301;-59
2022/12/21 09:59:16;;;;;;;5.43;4.73;;;;;;;8.09;100.00;96729.66;4991684;28;20205;-59
2022/12/21 10:01:50;;;;;;;9.63;4.63;;;;;;;8.09;100.00;96730.50;4991684;28;20229;-59
2022/12/21 10:04:28;;;;;;;6.07;4.57;;;;;;;8.13;100.00;96731.09;4991885;28;20212;-61
2022/12/21 10:07:01;;;;;;;5.33;4.70;;;;;;;8.18;100.00;96728.94;4991877;28;20193;-59
2022/12/21 10:09:40;;;;;;;6.60;4.70;;;;;;;8.17;100.00;96732.50;4991504;28;20232;-60
2022/12/21 10:12:16;;;;;;;9.93;5.10;;;;;;;8.20;100.00;96732.25;4992561;28;20214;-59
2022/12/21 10:14:59;;;;;;;5.80;4.87;;;;;;;8.24;100.00;96733.69;4992233;28;20213;-60
2022/12/21 10:17:37;;;;;;;5.97;4.80;;;;;;;8.27;100.00;96734.25;4991853;28;20197;-60
2022/12/21 10:20:16;;;;;;;6.10;5.00;;;;;;;8.32;100.00;96732.13;4991896;28;20520;-60
2022/12/21 10:22:45;;;;;;;5.47;4.87;;;;;;;8.38;100.00;96731.63;4992247;28;20221;-60
2022/12/21 10:25:17;;;;;;;5.37;4.43;;;;;;;8.39;100.00;96735.09;4994735;28;20217;-60
2022/12/21 10:27:47;;;;;;;7.07;4.67;;;;;;;8.41;100.00;96738.41;4994943;28;20205;-60
2022/12/21 10:30:16;;;;;;;5.23;4.70;;;;;;;8.41;100.00;96731.34;4994537;28;20197;-61
2022/12/21 10:32:47;;;;;;;6.07;4.50;;;;;;;8.43;100.00;96729.41;4995225;28;20201;-60
2022/12/21 10:35:20;;;;;;;5.47;4.53;;;;;;;8.43;100.00;96728.59;4994536;28;20205;-60
2022/12/21 10:37:49;;;;;;;4.73;4.30;;;;;;;8.44;100.00;96730.25;4994759;28;20203;-60
2022/12/21 10:40:15;;;;;;;4.67;4.13;;;;;;;8.46;100.00;96728.34;4994256;28;21463;-60
2022/12/21 10:42:43;;;;;;;4.00;3.70;;;;;;;8.45;100.00;96724.88;4994825;28;20240;-60
2022/12/21 10:45:13;;;;;;;3.77;3.47;;;;;;;8.50;100.00;96724.50;4994478;28;20248;-61
2022/12/21 10:47:44;;;;;;;4.57;4.17;;;;;;;8.48;100.00;96716.69;4995508;28;20209;-61
2022/12/21 10:50:13;;;;;;;6.10;4.30;;;;;;;8.50;100.00;96706.06;4994766;28;20285;-61
2022/12/21 10:52:41;;;;;;;4.33;4.00;;;;;;;8.52;100.00;96708.53;4994093;28;20609;-62
2022/12/21 10:55:25;;;;;;;4.00;3.70;;;;;;;8.54;100.00;96698.72;4993286;28;21440;-61
2022/12/21 10:57:56;;;;;;;5.90;3.43;;;;;;;8.56;100.00;96705.53;4994443;28;20205;-60
2022/12/21 11:00:24;;;;;;;3.43;3.13;;;;;;;8.59;100.00;96701.78;4994906;28;20197;-60
2022/12/21 11:02:53;;;;;;;3.27;3.00;;;;;;;8.64;100.00;96699.59;4994378;28;20217;-59
2022/12/21 11:05:29;;;;;;;3.13;2.93;;;;;;;8.66;100.00;96690.59;4994350;28;20220;-61
2022/12/21 11:08:12;;;;;;;2.70;2.50;;;;;;;8.72;100.00;96683.94;5004360;28;20197;-60
2022/12/21 11:10:39;;;;;;;3.50;2.20;;;;;;;8.76;100.00;96686.22;5018029;28;20201;-60
2022/12/21 11:13:06;;;;;;;2.60;2.40;;;;;;;8.81;100.00;96685.81;5018088;28;20197;-60
2022/12/21 11:15:33;;;;;;;4.77;3.37;;;;;;;8.86;100.00;96684.44;5002560;28;20208;-61
2022/12/21 11:18:01;;;;;;;3.97;3.67;;;;;;;8.91;100.00;96681.44;4994371;28;20220;-61
2022/12/21 11:20:28;;;;;;;2.90;2.70;;;;;;;8.95;100.00;96678.41;4994409;28;20212;-59
2022/12/21 11:22:57;;;;;;;2.13;2.03;;;;;;;9.02;100.00;96678.69;4993986;28;20225;-60
2022/12/21 11:25:25;;;;;;;2.23;2.03;;;;;;;9.09;100.00;96681.63;4994033;28;20209;-60
2022/12/21 11:27:56;;;;;;;2.00;1.90;;;;;;;9.14;100.00;96674.19;4994791;28;20212;-60
2022/12/21 11:30:24;;;;;;;2.00;1.90;;;;;;;9.18;100.00;96668.47;4993516;28;20189;-60
2022/12/21 11:32:53;;;;;;;3.57;1.60;;;;;;;9.24;100.00;96669.75;4993921;28;20220;-61
2022/12/21 11:35:22;;;;;;;4.17;1.90;;;;;;;9.30;100.00;96663.94;4993379;28;20201;-60
2022/12/21 11:37:53;;;;;;;3.17;1.70;;;;;;;9.36;100.00;96663.38;4994059;28;20209;-60
2022/12/21 11:40:22;;;;;;;2.87;1.90;;;;;;;9.39;100.00;96663.13;4993585;28;20216;-61
2022/12/21 11:42:53;;;;;;;3.07;1.93;;;;;;;9.41;100.00;96666.47;4993162;28;20235;-61
2022/12/21 11:45:22;;;;;;;2.73;1.73;;;;;;;9.43;100.00;96664.53;4993669;28;20212;-60
2022/12/21 11:48:04;;;;;;;3.37;1.70;;;;;;;9.45;100.00;96657.31;4993384;28;20637;-60
2022/12/21 11:50:43;;;;;;;2.17;1.80;;;;;;;9.47;100.00;96653.56;4993342;28;20272;-60
2022/12/21 11:53:42;;;;;;;2.20;2.00;;;;;;;9.47;100.00;96652.72;4993898;28;20197;-61
2022/12/21 11:56:19;;;;;;;4.73;2.10;;;;;;;9.49;100.00;96658.72;4970454;28;20215;-61
2022/12/21 11:58:58;;;;;;;2.93;1.93;;;;;;;9.52;100.00;96649.69;4993977;28;20596;-60